sensor_id;sensor_type;location;lat;lon;timestamp;P1;durP1;ratioP1;P2;durP2;ratioP2
679;SDS011;322;48.846;9.230;2023-06-24T00:00:13;7.13;;;6.43;;
679;SDS011;322;48.846;9.230;2023-06-24T00:02:42;7.77;;;6.97;;
679;SDS011;322;48.846;9.230;2023-06-24T00:05:11;7.80;;;7.00;;
679;SDS011;322;48.846;9.230;2023-06-24T00:07:39;7.37;;;6.57;;
679;SDS011;322;48.846;9.230;2023-06-24T00:10:12;7.50;;;6.80;;
679;SDS011;322;48.846;9.230;2023-06-24T00:12:43;8.30;;;7.50;;
679;SDS011;322;48.846;9.230;2023-06-24T00:15:13;8.17;;;7.37;;
679;SDS011;322;48.846;9.230;2023-06-24T00:17:42;7.40;;;6.70;;
679;SDS011;322;48.846;9.230;2023-06-24T00:20:10;7.47;;;6.67;;
679;SDS011;322;48.846;9.230;2023-06-24T00:22:41;8.30;;;7.50;;
679;SDS011;322;48.846;9.230;2023-06-24T00:25:10;9.37;;;7.80;;
679;SDS011;322;48.846;9.230;2023-06-24T00:27:39;8.27;;;7.43;;
679;SDS011;322;48.846;9.230;2023-06-24T00:30:07;8.40;;;7.60;;
679;SDS011;322;48.846;9.230;2023-06-24T00:32:37;8.20;;;7.40;;
679;SDS011;322;48.846;9.230;2023-06-24T00:35:05;8.60;;;7.80;;
679;SDS011;322;48.846;9.230;2023-06-24T00:37:34;8.53;;;7.73;;
679;SDS011;322;48.846;9.230;2023-06-24T00:40:02;7.67;;;6.90;;
679;SDS011;322;48.846;9.230;2023-06-24T00:42:32;18.53;;;7.00;;
679;SDS011;322;48.846;9.230;2023-06-24T00:45:00;7.23;;;6.53;;
679;SDS011;322;48.846;9.230;2023-06-24T00:47:30;7.77;;;7.07;;
679;SDS011;322;48.846;9.230;2023-06-24T00:50:02;10.13;;;7.50;;
679;SDS011;322;48.846;9.230;2023-06-24T00:52:31;8.27;;;7.47;;
679;SDS011;322;48.846;9.230;2023-06-24T00:54:59;7.83;;;7.13;;
679;SDS011;322;48.846;9.230;2023-06-24T00:57:29;7.30;;;6.60;;
679;SDS011;322;48.846;9.230;2023-06-24T00:59:57;8.20;;;7.13;;
679;SDS011;322;48.846;9.230;2023-06-24T01:02:27;7.87;;;7.07;;
679;SDS011;322;48.846;9.230;2023-06-24T01:04:55;7.43;;;6.73;;
679;SDS011;322;48.846;9.230;2023-06-24T01:07:24;8.27;;;7.37;;
679;SDS011;322;48.846;9.230;2023-06-24T01:09:53;10.33;;;8.00;;
679;SDS011;322;48.846;9.230;2023-06-24T01:12:21;7.50;;;6.90;;
679;SDS011;322;48.846;9.230;2023-06-24T01:14:50;7.57;;;6.87;;
679;SDS011;322;48.846;9.230;2023-06-24T01:17:19;7.60;;;6.90;;
679;SDS011;322;48.846;9.230;2023-06-24T01:19:58;7.80;;;7.00;;
679;SDS011;322;48.846;9.230;2023-06-24T01:25:51;8.10;;;7.30;;
679;SDS011;322;48.846;9.230;2023-06-24T01:28:47;8.23;;;7.43;;
679;SDS011;322;48.846;9.230;2023-06-24T01:31:38;8.17;;;7.37;;
679;SDS011;322;48.846;9.230;2023-06-24T01:34:12;8.10;;;7.37;;
679;SDS011;322;48.846;9.230;2023-06-24T01:36:47;8.10;;;7.27;;
679;SDS011;322;48.846;9.230;2023-06-24T01:39:21;8.03;;;7.23;;
679;SDS011;322;48.846;9.230;2023-06-24T01:41:54;8.23;;;7.33;;
679;SDS011;322;48.846;9.230;2023-06-24T01:44:26;8.73;;;7.93;;
679;SDS011;322;48.846;9.230;2023-06-24T01:46:58;9.00;;;7.57;;
679;SDS011;322;48.846;9.230;2023-06-24T01:49:28;13.90;;;7.93;;
679;SDS011;322;48.846;9.230;2023-06-24T01:51:59;7.60;;;6.90;;
679;SDS011;322;48.846;9.230;2023-06-24T01:54:29;8.30;;;7.50;;
679;SDS011;322;48.846;9.230;2023-06-24T01:56:59;7.80;;;7.03;;
679;SDS011;322;48.846;9.230;2023-06-24T01:59:29;8.37;;;7.43;;
679;SDS011;322;48.846;9.230;2023-06-24T02:02:00;8.47;;;7.63;;
679;SDS011;322;48.846;9.230;2023-06-24T02:04:29;13.03;;;8.00;;
679;SDS011;322;48.846;9.230;2023-06-24T02:06:59;10.20;;;8.00;;
679;SDS011;322;48.846;9.230;2023-06-24T02:09:28;12.13;;;8.20;;
679;SDS011;322;48.846;9.230;2023-06-24T02:11:59;10.63;;;8.53;;
679;SDS011;322;48.846;9.230;2023-06-24T02:14:29;11.77;;;9.17;;
679;SDS011;322;48.846;9.230;2023-06-24T02:17:02;12.17;;;10.37;;
679;SDS011;322;48.846;9.230;2023-06-24T02:19:33;9.60;;;8.60;;
679;SDS011;322;48.846;9.230;2023-06-24T02:22:02;9.03;;;8.10;;
679;SDS011;322;48.846;9.230;2023-06-24T02:24:36;9.50;;;8.33;;
679;SDS011;322;48.846;9.230;2023-06-24T02:27:06;9.07;;;8.10;;
679;SDS011;322;48.846;9.230;2023-06-24T02:29:35;10.90;;;8.70;;
679;SDS011;322;48.846;9.230;2023-06-24T02:32:06;9.67;;;8.77;;
679;SDS011;322;48.846;9.230;2023-06-24T02:34:36;8.10;;;7.40;;
679;SDS011;322;48.846;9.230;2023-06-24T02:37:04;9.07;;;8.17;;
679;SDS011;322;48.846;9.230;2023-06-24T02:39:32;8.90;;;8.03;;
679;SDS011;322;48.846;9.230;2023-06-24T02:42:01;8.97;;;8.17;;
679;SDS011;322;48.846;9.230;2023-06-24T02:44:29;9.63;;;8.73;;
679;SDS011;322;48.846;9.230;2023-06-24T02:46:57;9.70;;;8.70;;
679;SDS011;322;48.846;9.230;2023-06-24T02:49:28;10.10;;;9.10;;
679;SDS011;322;48.846;9.230;2023-06-24T02:51:57;9.33;;;8.43;;
679;SDS011;322;48.846;9.230;2023-06-24T02:54:25;9.83;;;8.93;;
679;SDS011;322;48.846;9.230;2023-06-24T02:56:53;8.13;;;7.30;;
679;SDS011;322;48.846;9.230;2023-06-24T02:59:26;10.00;;;9.00;;
679;SDS011;322;48.846;9.230;2023-06-24T03:01:54;10.33;;;9.30;;
679;SDS011;322;48.846;9.230;2023-06-24T03:04:23;10.83;;;9.83;;
679;SDS011;322;48.846;9.230;2023-06-24T03:06:53;10.67;;;9.67;;
679;SDS011;322;48.846;9.230;2023-06-24T03:09:23;10.97;;;9.87;;
679;SDS011;322;48.846;9.230;2023-06-24T03:11:51;10.17;;;9.17;;
679;SDS011;322;48.846;9.230;2023-06-24T03:14:19;10.57;;;9.63;;
679;SDS011;322;48.846;9.230;2023-06-24T03:16:47;9.97;;;8.97;;
679;SDS011;322;48.846;9.230;2023-06-24T03:19:15;12.93;;;9.80;;
679;SDS011;322;48.846;9.230;2023-06-24T03:21:43;10.83;;;9.73;;
679;SDS011;322;48.846;9.230;2023-06-24T03:24:12;10.80;;;9.80;;
679;SDS011;322;48.846;9.230;2023-06-24T03:26:40;10.53;;;9.50;;
679;SDS011;322;48.846;9.230;2023-06-24T03:29:09;11.00;;;10.00;;
679;SDS011;322;48.846;9.230;2023-06-24T03:31:37;9.37;;;8.57;;
679;SDS011;322;48.846;9.230;2023-06-24T03:34:10;11.43;;;9.70;;
679;SDS011;322;48.846;9.230;2023-06-24T03:36:38;12.03;;;10.17;;
679;SDS011;322;48.846;9.230;2023-06-24T03:39:06;11.07;;;9.97;;
679;SDS011;322;48.846;9.230;2023-06-24T03:41:36;10.40;;;9.30;;
679;SDS011;322;48.846;9.230;2023-06-24T03:44:05;9.90;;;8.90;;
679;SDS011;322;48.846;9.230;2023-06-24T03:46:33;10.37;;;9.37;;
679;SDS011;322;48.846;9.230;2023-06-24T03:49:01;9.57;;;8.57;;
679;SDS011;322;48.846;9.230;2023-06-24T03:51:29;9.60;;;8.57;;
679;SDS011;322;48.846;9.230;2023-06-24T03:53:57;9.93;;;8.93;;
679;SDS011;322;48.846;9.230;2023-06-24T03:56:25;10.90;;;9.90;;
679;SDS011;322;48.846;9.230;2023-06-24T03:58:54;10.17;;;9.17;;
679;SDS011;322;48.846;9.230;2023-06-24T04:01:22;10.47;;;9.17;;
679;SDS011;322;48.846;9.230;2023-06-24T04:03:50;10.40;;;9.40;;
679;SDS011;322;48.846;9.230;2023-06-24T04:06:18;11.13;;;9.17;;
679;SDS011;322;48.846;9.230;2023-06-24T04:08:46;11.30;;;10.20;;
679;SDS011;322;48.846;9.230;2023-06-24T04:11:15;8.60;;;7.90;;
679;SDS011;322;48.846;9.230;2023-06-24T04:13:43;17.43;;;9.67;;
679;SDS011;322;48.846;9.230;2023-06-24T04:16:13;10.23;;;9.10;;
679;SDS011;322;48.846;9.230;2023-06-24T04:18:41;10.60;;;9.50;;
679;SDS011;322;48.846;9.230;2023-06-24T04:21:09;9.47;;;8.30;;
679;SDS011;322;48.846;9.230;2023-06-24T04:23:37;8.47;;;7.53;;
679;SDS011;322;48.846;9.230;2023-06-24T04:26:05;9.43;;;8.50;;
679;SDS011;322;48.846;9.230;2023-06-24T04:28:34;10.50;;;9.50;;
679;SDS011;322;48.846;9.230;2023-06-24T04:31:03;10.93;;;8.43;;
679;SDS011;322;48.846;9.230;2023-06-24T04:33:33;9.10;;;8.20;;
679;SDS011;322;48.846;9.230;2023-06-24T04:36:01;10.03;;;8.17;;
679;SDS011;322;48.846;9.230;2023-06-24T04:38:29;12.30;;;8.20;;
679;SDS011;322;48.846;9.230;2023-06-24T04:40:57;12.73;;;8.17;;
679;SDS011;322;48.846;9.230;2023-06-24T04:43:25;17.13;;;8.20;;
679;SDS011;322;48.846;9.230;2023-06-24T04:45:54;9.20;;;8.30;;
679;SDS011;322;48.846;9.230;2023-06-24T04:48:23;8.93;;;7.83;;
679;SDS011;322;48.846;9.230;2023-06-24T04:50:52;10.67;;;8.07;;
679;SDS011;322;48.846;9.230;2023-06-24T04:53:21;13.00;;;8.20;;
679;SDS011;322;48.846;9.230;2023-06-24T04:55:49;13.00;;;8.40;;
679;SDS011;322;48.846;9.230;2023-06-24T04:58:17;8.63;;;7.73;;
679;SDS011;322;48.846;9.230;2023-06-24T05:00:45;9.63;;;8.40;;
679;SDS011;322;48.846;9.230;2023-06-24T05:03:13;9.83;;;7.70;;
679;SDS011;322;48.846;9.230;2023-06-24T05:05:41;12.37;;;8.17;;
679;SDS011;322;48.846;9.230;2023-06-24T05:08:11;11.60;;;7.87;;
679;SDS011;322;48.846;9.230;2023-06-24T05:10:39;9.70;;;8.50;;
679;SDS011;322;48.846;9.230;2023-06-24T05:13:07;12.47;;;8.27;;
679;SDS011;322;48.846;9.230;2023-06-24T05:15:35;13.70;;;9.10;;
679;SDS011;322;48.846;9.230;2023-06-24T05:18:03;10.70;;;8.83;;
679;SDS011;322;48.846;9.230;2023-06-24T05:20:31;7.67;;;6.97;;
679;SDS011;322;48.846;9.230;2023-06-24T05:22:59;8.43;;;7.63;;
679;SDS011;322;48.846;9.230;2023-06-24T05:25:29;8.50;;;7.70;;
679;SDS011;322;48.846;9.230;2023-06-24T05:27:57;8.17;;;7.37;;
679;SDS011;322;48.846;9.230;2023-06-24T05:30:25;8.63;;;7.90;;
679;SDS011;322;48.846;9.230;2023-06-24T05:32:53;8.10;;;7.30;;
679;SDS011;322;48.846;9.230;2023-06-24T05:35:21;7.90;;;7.23;;
679;SDS011;322;48.846;9.230;2023-06-24T05:37:49;8.50;;;7.70;;
679;SDS011;322;48.846;9.230;2023-06-24T05:40:17;7.60;;;6.90;;
679;SDS011;322;48.846;9.230;2023-06-24T05:42:47;7.40;;;6.80;;
679;SDS011;322;48.846;9.230;2023-06-24T05:45:15;8.13;;;7.43;;
679;SDS011;322;48.846;9.230;2023-06-24T05:47:43;7.57;;;6.97;;
679;SDS011;322;48.846;9.230;2023-06-24T05:50:13;7.80;;;7.10;;
679;SDS011;322;48.846;9.230;2023-06-24T05:52:41;7.50;;;6.80;;
679;SDS011;322;48.846;9.230;2023-06-24T05:55:09;8.00;;;7.20;;
679;SDS011;322;48.846;9.230;2023-06-24T05:57:39;7.67;;;6.97;;
679;SDS011;322;48.846;9.230;2023-06-24T06:00:09;9.23;;;6.57;;
679;SDS011;322;48.846;9.230;2023-06-24T06:02:38;8.80;;;7.10;;
679;SDS011;322;48.846;9.230;2023-06-24T06:05:07;8.30;;;7.20;;
679;SDS011;322;48.846;9.230;2023-06-24T06:07:35;7.37;;;6.63;;
679;SDS011;322;48.846;9.230;2023-06-24T06:10:04;7.70;;;7.00;;
679;SDS011;322;48.846;9.230;2023-06-24T06:12:33;7.63;;;6.90;;
679;SDS011;322;48.846;9.230;2023-06-24T06:15:01;7.60;;;6.80;;
679;SDS011;322;48.846;9.230;2023-06-24T06:17:31;8.93;;;7.17;;
679;SDS011;322;48.846;9.230;2023-06-24T06:19:59;8.33;;;7.57;;
679;SDS011;322;48.846;9.230;2023-06-24T06:22:27;7.73;;;6.93;;
679;SDS011;322;48.846;9.230;2023-06-24T06:24:55;7.80;;;7.10;;
679;SDS011;322;48.846;9.230;2023-06-24T06:27:23;7.70;;;6.73;;
679;SDS011;322;48.846;9.230;2023-06-24T06:29:51;8.10;;;7.30;;
679;SDS011;322;48.846;9.230;2023-06-24T06:32:19;7.20;;;6.57;;
679;SDS011;322;48.846;9.230;2023-06-24T06:34:49;8.13;;;6.20;;
679;SDS011;322;48.846;9.230;2023-06-24T06:37:17;7.80;;;6.47;;
679;SDS011;322;48.846;9.230;2023-06-24T06:39:45;7.43;;;6.80;;
679;SDS011;322;48.846;9.230;2023-06-24T06:42:13;9.30;;;6.57;;
679;SDS011;322;48.846;9.230;2023-06-24T06:44:41;7.47;;;6.87;;
679;SDS011;322;48.846;9.230;2023-06-24T06:47:10;7.57;;;6.97;;
679;SDS011;322;48.846;9.230;2023-06-24T06:49:38;8.33;;;7.50;;
679;SDS011;322;48.846;9.230;2023-06-24T06:52:08;7.03;;;6.43;;
679;SDS011;322;48.846;9.230;2023-06-24T06:54:36;7.00;;;6.30;;
679;SDS011;322;48.846;9.230;2023-06-24T06:57:04;6.57;;;5.93;;
679;SDS011;322;48.846;9.230;2023-06-24T06:59:32;7.70;;;6.67;;
679;SDS011;322;48.846;9.230;2023-06-24T07:02:00;6.10;;;5.50;;
679;SDS011;322;48.846;9.230;2023-06-24T07:04:29;6.33;;;5.83;;
679;SDS011;322;48.846;9.230;2023-06-24T07:06:58;5.73;;;5.13;;
679;SDS011;322;48.846;9.230;2023-06-24T07:09:28;7.10;;;5.83;;
679;SDS011;322;48.846;9.230;2023-06-24T07:11:56;9.30;;;5.60;;
679;SDS011;322;48.846;9.230;2023-06-24T07:14:24;6.70;;;5.80;;
679;SDS011;322;48.846;9.230;2023-06-24T07:16:52;7.20;;;5.80;;
679;SDS011;322;48.846;9.230;2023-06-24T07:19:20;5.70;;;5.20;;
679;SDS011;322;48.846;9.230;2023-06-24T07:21:48;9.10;;;6.73;;
679;SDS011;322;48.846;9.230;2023-06-24T07:24:16;6.03;;;5.43;;
679;SDS011;322;48.846;9.230;2023-06-24T07:26:46;6.90;;;6.20;;
679;SDS011;322;48.846;9.230;2023-06-24T07:29:14;6.07;;;5.47;;
679;SDS011;322;48.846;9.230;2023-06-24T07:31:42;6.07;;;5.50;;
679;SDS011;322;48.846;9.230;2023-06-24T07:34:10;6.83;;;5.93;;
679;SDS011;322;48.846;9.230;2023-06-24T07:36:38;6.60;;;5.80;;
679;SDS011;322;48.846;9.230;2023-06-24T07:39:06;6.80;;;6.20;;
679;SDS011;322;48.846;9.230;2023-06-24T07:41:35;7.80;;;5.80;;
679;SDS011;322;48.846;9.230;2023-06-24T07:44:04;10.47;;;5.90;;
679;SDS011;322;48.846;9.230;2023-06-24T07:46:32;5.83;;;5.07;;
679;SDS011;322;48.846;9.230;2023-06-24T07:49:01;5.10;;;4.70;;
679;SDS011;322;48.846;9.230;2023-06-24T07:51:29;7.43;;;6.07;;
679;SDS011;322;48.846;9.230;2023-06-24T07:53:57;6.90;;;5.20;;
679;SDS011;322;48.846;9.230;2023-06-24T07:56:25;6.70;;;5.77;;
679;SDS011;322;48.846;9.230;2023-06-24T07:58:53;5.57;;;5.17;;
679;SDS011;322;48.846;9.230;2023-06-24T08:01:22;6.38;;;5.88;;
679;SDS011;322;48.846;9.230;2023-06-24T08:03:50;5.37;;;4.97;;
679;SDS011;322;48.846;9.230;2023-06-24T08:06:19;6.27;;;5.57;;
679;SDS011;322;48.846;9.230;2023-06-24T08:08:47;5.43;;;4.93;;
679;SDS011;322;48.846;9.230;2023-06-24T08:11:15;6.30;;;5.70;;
679;SDS011;322;48.846;9.230;2023-06-24T08:13:43;6.70;;;4.80;;
679;SDS011;322;48.846;9.230;2023-06-24T08:16:11;4.83;;;4.43;;
679;SDS011;322;48.846;9.230;2023-06-24T08:18:41;6.13;;;4.90;;
679;SDS011;322;48.846;9.230;2023-06-24T08:21:10;6.50;;;4.90;;
679;SDS011;322;48.846;9.230;2023-06-24T08:23:38;4.90;;;4.50;;
679;SDS011;322;48.846;9.230;2023-06-24T08:26:07;5.50;;;5.00;;
679;SDS011;322;48.846;9.230;2023-06-24T08:28:43;5.40;;;4.90;;
679;SDS011;322;48.846;9.230;2023-06-24T08:31:12;5.37;;;4.87;;
679;SDS011;322;48.846;9.230;2023-06-24T08:33:43;5.77;;;5.17;;
679;SDS011;322;48.846;9.230;2023-06-24T08:36:12;5.50;;;5.10;;
679;SDS011;322;48.846;9.230;2023-06-24T08:38:40;5.30;;;4.83;;
679;SDS011;322;48.846;9.230;2023-06-24T08:41:08;5.27;;;4.67;;
679;SDS011;322;48.846;9.230;2023-06-24T08:43:36;5.10;;;4.70;;
679;SDS011;322;48.846;9.230;2023-06-24T08:46:05;5.50;;;5.10;;
679;SDS011;322;48.846;9.230;2023-06-24T08:48:33;5.07;;;4.67;;
679;SDS011;322;48.846;9.230;2023-06-24T08:51:08;5.23;;;4.73;;
679;SDS011;322;48.846;9.230;2023-06-24T08:53:39;4.97;;;4.50;;
679;SDS011;322;48.846;9.230;2023-06-24T08:56:10;6.10;;;4.80;;
679;SDS011;322;48.846;9.230;2023-06-24T08:58:39;6.13;;;5.50;;
679;SDS011;322;48.846;9.230;2023-06-24T09:01:07;4.87;;;4.47;;
679;SDS011;322;48.846;9.230;2023-06-24T09:03:36;5.00;;;4.60;;
679;SDS011;322;48.846;9.230;2023-06-24T09:06:04;4.63;;;4.23;;
679;SDS011;322;48.846;9.230;2023-06-24T09:08:34;6.30;;;5.70;;
679;SDS011;322;48.846;9.230;2023-06-24T09:11:05;4.67;;;4.37;;
679;SDS011;322;48.846;9.230;2023-06-24T09:13:36;4.40;;;4.00;;
679;SDS011;322;48.846;9.230;2023-06-24T09:16:14;4.80;;;4.40;;
679;SDS011;322;48.846;9.230;2023-06-24T09:18:46;4.73;;;4.30;;
679;SDS011;322;48.846;9.230;2023-06-24T09:21:20;4.57;;;4.17;;
679;SDS011;322;48.846;9.230;2023-06-24T09:23:53;4.33;;;4.00;;
679;SDS011;322;48.846;9.230;2023-06-24T09:26:22;5.40;;;4.90;;
679;SDS011;322;48.846;9.230;2023-06-24T09:28:51;4.77;;;4.37;;
679;SDS011;322;48.846;9.230;2023-06-24T09:31:20;4.33;;;4.00;;
679;SDS011;322;48.846;9.230;2023-06-24T09:33:49;4.83;;;4.43;;
679;SDS011;322;48.846;9.230;2023-06-24T09:36:18;4.37;;;4.07;;
679;SDS011;322;48.846;9.230;2023-06-24T09:38:46;5.27;;;4.67;;
679;SDS011;322;48.846;9.230;2023-06-24T09:41:16;4.77;;;4.23;;
679;SDS011;322;48.846;9.230;2023-06-24T09:43:44;4.40;;;4.10;;
679;SDS011;322;48.846;9.230;2023-06-24T09:46:13;4.33;;;3.93;;
679;SDS011;322;48.846;9.230;2023-06-24T09:48:43;4.73;;;4.33;;
679;SDS011;322;48.846;9.230;2023-06-24T09:51:11;5.23;;;4.80;;
679;SDS011;322;48.846;9.230;2023-06-24T09:53:40;4.10;;;3.53;;
679;SDS011;322;48.846;9.230;2023-06-24T09:56:10;6.23;;;4.23;;
679;SDS011;322;48.846;9.230;2023-06-24T09:58:42;3.83;;;3.53;;
679;SDS011;322;48.846;9.230;2023-06-24T10:01:12;4.30;;;3.30;;
679;SDS011;322;48.846;9.230;2023-06-24T10:03:40;3.87;;;3.57;;
679;SDS011;322;48.846;9.230;2023-06-24T10:06:09;3.37;;;3.13;;
679;SDS011;322;48.846;9.230;2023-06-24T10:08:37;4.27;;;3.97;;
679;SDS011;322;48.846;9.230;2023-06-24T10:11:05;3.53;;;3.23;;
679;SDS011;322;48.846;9.230;2023-06-24T10:13:33;3.60;;;3.40;;
679;SDS011;322;48.846;9.230;2023-06-24T10:16:03;3.17;;;2.87;;
679;SDS011;322;48.846;9.230;2023-06-24T10:18:34;3.70;;;3.50;;
679;SDS011;322;48.846;9.230;2023-06-24T10:21:03;3.80;;;3.40;;
679;SDS011;322;48.846;9.230;2023-06-24T10:23:33;4.03;;;3.33;;
679;SDS011;322;48.846;9.230;2023-06-24T10:26:09;4.47;;;4.07;;
679;SDS011;322;48.846;9.230;2023-06-24T10:34:38;3.80;;;3.50;;
679;SDS011;322;48.846;9.230;2023-06-24T10:37:08;3.97;;;3.50;;
679;SDS011;322;48.846;9.230;2023-06-24T10:39:45;3.90;;;3.60;;
679;SDS011;322;48.846;9.230;2023-06-24T10:42:31;4.20;;;3.73;;
679;SDS011;322;48.846;9.230;2023-06-24T10:45:01;4.10;;;3.70;;
679;SDS011;322;48.846;9.230;2023-06-24T10:47:42;5.20;;;4.80;;
679;SDS011;322;48.846;9.230;2023-06-24T10:50:12;4.10;;;3.63;;
679;SDS011;322;48.846;9.230;2023-06-24T10:52:42;3.87;;;3.47;;
679;SDS011;322;48.846;9.230;2023-06-24T10:55:13;3.70;;;3.40;;
679;SDS011;322;48.846;9.230;2023-06-24T10:57:42;3.83;;;3.53;;
679;SDS011;322;48.846;9.230;2023-06-24T11:00:10;3.60;;;3.30;;
679;SDS011;322;48.846;9.230;2023-06-24T11:02:41;6.87;;;3.93;;
679;SDS011;322;48.846;9.230;2023-06-24T11:05:11;3.93;;;3.30;;
679;SDS011;322;48.846;9.230;2023-06-24T11:07:39;3.73;;;3.43;;
679;SDS011;322;48.846;9.230;2023-06-24T11:10:09;5.27;;;4.77;;
679;SDS011;322;48.846;9.230;2023-06-24T11:12:40;4.67;;;4.23;;
679;SDS011;322;48.846;9.230;2023-06-24T11:15:10;14.00;;;6.40;;
679;SDS011;322;48.846;9.230;2023-06-24T11:17:39;4.43;;;4.07;;
679;SDS011;322;48.846;9.230;2023-06-24T11:20:10;3.90;;;3.60;;
679;SDS011;322;48.846;9.230;2023-06-24T11:22:40;4.97;;;4.53;;
679;SDS011;322;48.846;9.230;2023-06-24T11:25:14;4.77;;;4.33;;
679;SDS011;322;48.846;9.230;2023-06-24T11:27:43;4.80;;;4.07;;
679;SDS011;322;48.846;9.230;2023-06-24T11:30:11;3.90;;;3.60;;
679;SDS011;322;48.846;9.230;2023-06-24T11:32:42;4.63;;;4.23;;
679;SDS011;322;48.846;9.230;2023-06-24T11:35:12;4.63;;;4.13;;
679;SDS011;322;48.846;9.230;2023-06-24T11:37:42;4.90;;;3.97;;
679;SDS011;322;48.846;9.230;2023-06-24T11:40:11;4.60;;;3.77;;
679;SDS011;322;48.846;9.230;2023-06-24T11:42:42;4.00;;;3.70;;
679;SDS011;322;48.846;9.230;2023-06-24T11:45:12;4.30;;;3.90;;
679;SDS011;322;48.846;9.230;2023-06-24T11:47:43;4.53;;;4.13;;
679;SDS011;322;48.846;9.230;2023-06-24T11:50:11;4.83;;;3.83;;
679;SDS011;322;48.846;9.230;2023-06-24T11:52:40;4.07;;;3.73;;
679;SDS011;322;48.846;9.230;2023-06-24T11:55:15;4.60;;;4.20;;
679;SDS011;322;48.846;9.230;2023-06-24T11:57:48;4.27;;;3.97;;
679;SDS011;322;48.846;9.230;2023-06-24T12:00:19;4.00;;;3.70;;
679;SDS011;322;48.846;9.230;2023-06-24T12:02:50;3.87;;;3.57;;
679;SDS011;322;48.846;9.230;2023-06-24T12:05:21;4.07;;;3.67;;
679;SDS011;322;48.846;9.230;2023-06-24T12:07:55;4.53;;;4.13;;
679;SDS011;322;48.846;9.230;2023-06-24T12:10:25;5.17;;;4.77;;
679;SDS011;322;48.846;9.230;2023-06-24T12:12:55;3.60;;;3.30;;
679;SDS011;322;48.846;9.230;2023-06-24T12:15:24;3.97;;;3.67;;
679;SDS011;322;48.846;9.230;2023-06-24T12:17:54;4.43;;;4.03;;
679;SDS011;322;48.846;9.230;2023-06-24T12:20:23;4.10;;;3.80;;
679;SDS011;322;48.846;9.230;2023-06-24T12:23:00;6.63;;;4.07;;
679;SDS011;322;48.846;9.230;2023-06-24T12:25:28;4.57;;;4.20;;
679;SDS011;322;48.846;9.230;2023-06-24T12:27:56;4.63;;;4.30;;
679;SDS011;322;48.846;9.230;2023-06-24T12:30:25;4.60;;;4.20;;
679;SDS011;322;48.846;9.230;2023-06-24T12:32:55;3.83;;;3.53;;
679;SDS011;322;48.846;9.230;2023-06-24T12:35:23;3.57;;;3.30;;
679;SDS011;322;48.846;9.230;2023-06-24T12:37:52;4.57;;;4.07;;
679;SDS011;322;48.846;9.230;2023-06-24T12:40:20;4.17;;;3.77;;
679;SDS011;322;48.846;9.230;2023-06-24T12:42:48;3.83;;;3.53;;
679;SDS011;322;48.846;9.230;2023-06-24T12:45:16;4.40;;;4.10;;
679;SDS011;322;48.846;9.230;2023-06-24T12:47:44;4.67;;;4.37;;
679;SDS011;322;48.846;9.230;2023-06-24T12:50:14;4.83;;;4.07;;
679;SDS011;322;48.846;9.230;2023-06-24T12:52:42;3.30;;;3.00;;
679;SDS011;322;48.846;9.230;2023-06-24T12:55:10;3.90;;;3.60;;
679;SDS011;322;48.846;9.230;2023-06-24T12:57:42;3.80;;;3.50;;
679;SDS011;322;48.846;9.230;2023-06-24T13:00:10;4.17;;;3.63;;
679;SDS011;322;48.846;9.230;2023-06-24T13:02:39;3.90;;;3.60;;
679;SDS011;322;48.846;9.230;2023-06-24T13:05:07;3.27;;;3.03;;
679;SDS011;322;48.846;9.230;2023-06-24T13:07:37;3.90;;;3.60;;
679;SDS011;322;48.846;9.230;2023-06-24T13:10:05;5.53;;;3.60;;
679;SDS011;322;48.846;9.230;2023-06-24T13:12:34;4.20;;;3.90;;
679;SDS011;322;48.846;9.230;2023-06-24T13:15:03;3.73;;;3.40;;
679;SDS011;322;48.846;9.230;2023-06-24T13:17:31;4.03;;;3.77;;
679;SDS011;322;48.846;9.230;2023-06-24T13:20:00;3.50;;;3.30;;
679;SDS011;322;48.846;9.230;2023-06-24T13:22:30;3.90;;;3.60;;
679;SDS011;322;48.846;9.230;2023-06-24T13:25:00;3.97;;;3.70;;
679;SDS011;322;48.846;9.230;2023-06-24T13:27:28;4.13;;;3.73;;
679;SDS011;322;48.846;9.230;2023-06-24T13:29:56;3.60;;;3.30;;
679;SDS011;322;48.846;9.230;2023-06-24T13:32:24;4.10;;;3.70;;
679;SDS011;322;48.846;9.230;2023-06-24T13:34:52;4.40;;;4.10;;
679;SDS011;322;48.846;9.230;2023-06-24T13:37:20;4.20;;;3.87;;
679;SDS011;322;48.846;9.230;2023-06-24T13:39:48;4.73;;;4.33;;
679;SDS011;322;48.846;9.230;2023-06-24T13:42:17;4.30;;;4.00;;
679;SDS011;322;48.846;9.230;2023-06-24T13:44:45;4.00;;;3.60;;
679;SDS011;322;48.846;9.230;2023-06-24T13:47:13;3.60;;;3.30;;
679;SDS011;322;48.846;9.230;2023-06-24T13:49:42;3.53;;;3.23;;
679;SDS011;322;48.846;9.230;2023-06-24T13:52:10;4.00;;;3.60;;
679;SDS011;322;48.846;9.230;2023-06-24T13:54:38;4.03;;;3.73;;
679;SDS011;322;48.846;9.230;2023-06-24T13:57:06;4.10;;;3.70;;
679;SDS011;322;48.846;9.230;2023-06-24T13:59:35;4.10;;;3.80;;
679;SDS011;322;48.846;9.230;2023-06-24T14:02:04;3.97;;;3.67;;
679;SDS011;322;48.846;9.230;2023-06-24T14:04:34;3.77;;;3.47;;
679;SDS011;322;48.846;9.230;2023-06-24T14:07:03;3.63;;;3.33;;
679;SDS011;322;48.846;9.230;2023-06-24T14:09:32;3.93;;;3.60;;
679;SDS011;322;48.846;9.230;2023-06-24T14:12:01;4.27;;;3.97;;
679;SDS011;322;48.846;9.230;2023-06-24T14:14:29;4.20;;;3.80;;
679;SDS011;322;48.846;9.230;2023-06-24T14:16:59;3.80;;;3.50;;
679;SDS011;322;48.846;9.230;2023-06-24T14:19:27;4.10;;;3.80;;
679;SDS011;322;48.846;9.230;2023-06-24T14:21:55;4.23;;;3.93;;
679;SDS011;322;48.846;9.230;2023-06-24T14:24:24;4.00;;;3.70;;
679;SDS011;322;48.846;9.230;2023-06-24T14:26:52;3.90;;;3.60;;
679;SDS011;322;48.846;9.230;2023-06-24T14:29:20;4.60;;;4.30;;
679;SDS011;322;48.846;9.230;2023-06-24T14:31:48;6.10;;;3.87;;
679;SDS011;322;48.846;9.230;2023-06-24T14:34:17;3.60;;;3.30;;
679;SDS011;322;48.846;9.230;2023-06-24T14:36:46;4.13;;;3.83;;
679;SDS011;322;48.846;9.230;2023-06-24T14:39:14;3.47;;;3.20;;
679;SDS011;322;48.846;9.230;2023-06-24T14:41:43;4.20;;;3.80;;
679;SDS011;322;48.846;9.230;2023-06-24T14:44:12;3.30;;;3.10;;
679;SDS011;322;48.846;9.230;2023-06-24T14:46:40;4.10;;;3.70;;
679;SDS011;322;48.846;9.230;2023-06-24T14:49:08;4.47;;;4.10;;
679;SDS011;322;48.846;9.230;2023-06-24T14:51:38;3.57;;;3.37;;
679;SDS011;322;48.846;9.230;2023-06-24T14:54:06;3.70;;;3.40;;
679;SDS011;322;48.846;9.230;2023-06-24T14:56:34;4.80;;;4.40;;
679;SDS011;322;48.846;9.230;2023-06-24T14:59:02;5.20;;;3.60;;
679;SDS011;322;48.846;9.230;2023-06-24T15:01:29;4.50;;;4.10;;
679;SDS011;322;48.846;9.230;2023-06-24T15:03:57;4.07;;;3.70;;
679;SDS011;322;48.846;9.230;2023-06-24T15:06:26;4.70;;;4.30;;
679;SDS011;322;48.846;9.230;2023-06-24T15:08:55;4.40;;;4.10;;
679;SDS011;322;48.846;9.230;2023-06-24T15:11:23;3.93;;;3.63;;
679;SDS011;322;48.846;9.230;2023-06-24T15:13:51;4.20;;;3.90;;
679;SDS011;322;48.846;9.230;2023-06-24T15:16:19;4.10;;;3.70;;
679;SDS011;322;48.846;9.230;2023-06-24T15:18:47;4.23;;;3.70;;
679;SDS011;322;48.846;9.230;2023-06-24T15:21:16;4.60;;;4.30;;
679;SDS011;322;48.846;9.230;2023-06-24T15:24:03;4.10;;;3.80;;
679;SDS011;322;48.846;9.230;2023-06-24T15:26:31;4.20;;;3.80;;
679;SDS011;322;48.846;9.230;2023-06-24T15:28:59;4.00;;;3.70;;
679;SDS011;322;48.846;9.230;2023-06-24T15:31:27;4.23;;;3.60;;
679;SDS011;322;48.846;9.230;2023-06-24T15:33:56;4.17;;;3.87;;
679;SDS011;322;48.846;9.230;2023-06-24T15:36:24;3.80;;;3.50;;
679;SDS011;322;48.846;9.230;2023-06-24T15:38:55;4.90;;;3.87;;
679;SDS011;322;48.846;9.230;2023-06-24T15:41:25;4.40;;;4.10;;
679;SDS011;322;48.846;9.230;2023-06-24T15:43:53;6.10;;;5.60;;
679;SDS011;322;48.846;9.230;2023-06-24T15:46:21;4.37;;;3.97;;
679;SDS011;322;48.846;9.230;2023-06-24T15:48:49;3.97;;;3.50;;
679;SDS011;322;48.846;9.230;2023-06-24T15:51:17;4.50;;;4.10;;
679;SDS011;322;48.846;9.230;2023-06-24T15:53:46;4.20;;;3.90;;
679;SDS011;322;48.846;9.230;2023-06-24T15:56:14;3.83;;;3.53;;
679;SDS011;322;48.846;9.230;2023-06-24T15:58:43;4.73;;;3.40;;
679;SDS011;322;48.846;9.230;2023-06-24T16:01:13;4.33;;;4.03;;
679;SDS011;322;48.846;9.230;2023-06-24T16:03:41;4.90;;;3.53;;